CheckWX is a tool to help pilots better visualize weather data.  It is not intended as a substitute for an official pre-flight weather briefing.

23:46:48 UTC

KRDM METAR
Roberts Field Airport
Redmond, Oregon, USA
Current

51 mins ago

KRDM 222256Z 29012KT 10SM CLR 19/02 A3036 RMK AO2 SLP271 T01890022
Observed
Oct-22 @ 22:56 UTC
Wind
  • 290° at 12 KTS
Visibility
10 SM
Flight Rules
VFR
Cloud Levels
  • Clear skies
Temperature
19°C / 66°F
Dewpoint
C / 36°F
Humidity
32%
Altimeter
30.36" Hg
Pressure
1028.12 hPa
Previous

2 hours ago

KRDM 222156Z 31011KT 10SM CLR 20/02 A3035 RMK AO2 SLP269 T02000017
Observed
Oct-22 @ 21:56 UTC
Wind
  • 310° at 11 KTS
Visibility
10 SM
Flight Rules
VFR
Cloud Levels
  • Clear skies
Temperature
20°C / 68°F
Dewpoint
C / 36°F
Humidity
30%
Altimeter
30.35" Hg
Pressure
1027.82 hPa
Previous

3 hours ago

KRDM 222056Z 31016G19KT 10SM CLR 20/04 A3034 RMK AO2 SLP267 T02000039 58001
Observed
Oct-22 @ 20:56 UTC
Wind
  • 310° at 16 KTS
  • Gusting to 19 KTS
Visibility
10 SM
Flight Rules
VFR
Cloud Levels
  • Clear skies
Temperature
20°C / 68°F
Dewpoint
C / 39°F
Humidity
35%
Altimeter
30.34" Hg
Pressure
1027.42 hPa